This is the latest recevied weather packets stored in our database for station/object W8RD. If no packets are shown the sender has not sent any weather packets the latest 10 day(s).
| Time | Temp. | Humidity | Pressure | Rain* | Wind** | Luminosity | Snow |
|---|---|---|---|---|---|---|---|
| 1777437560 | 23.89° C | 75% | 1018.3 hPa | 0 mm | - | 0 W/m² | - |
| 1777436959 | 23.89° C | 74% | 1018.2 hPa | 0 mm | - | 0 W/m² | - |
| 1777436358 | 23.89° C | 75% | 1018.5 hPa | 0 mm | - | 0 W/m² | - |
| 1777435756 | 23.33° C | 76% | 1018.6 hPa | 0 mm | - | 0 W/m² | - |
| 1777435154 | 22.78° C | 78% | 1018.7 hPa | 0 mm | - | 0 W/m² | - |
| 1777433954 | 22.78° C | 80% | 1018.9 hPa | 0 mm | - | 0 W/m² | - |
| 1777433353 | 22.78° C | 80% | 1019.1 hPa | 0 mm | - | 0 W/m² | - |
| 1777432750 | 23.33° C | 79% | 1019.3 hPa | 0 mm | - | 0 W/m² | - |
| 1777432148 | 23.33° C | 79% | 1019.5 hPa | 0 mm | - | 0 W/m² | - |
| 1777430340 | 23.33° C | 75% | 1019.2 hPa | 0 mm | - | 0 W/m² | - |
| 1777429737 | 23.33° C | 75% | 1019.1 hPa | 0 mm | - | 0 W/m² | - |
| 1777428533 | 23.33° C | 75% | 1018.9 hPa | 0 mm | - | 0 W/m² | - |
| 1777426728 | 24.44° C | 72% | 1018.8 hPa | 0 mm | - | 0 W/m² | - |
| 1777426127 | 24.44° C | 71% | 1018.7 hPa | 0 mm | - | 0 W/m² | - |
| 1777425523 | 24.44° C | 70% | 1018.4 hPa | 0 mm | - | 0 W/m² | - |
| 1777424922 | 24.44° C | 69% | 1018.6 hPa | 0 mm | - | 0 W/m² | - |
| 1777423717 | 25° C | 69% | 1018.6 hPa | 0 mm | - | 0 W/m² | - |
| 1777423113 | 25° C | 68% | 1018.3 hPa | 0 mm | - | 0 W/m² | - |
| 1777422510 | 25° C | 67% | 1018.5 hPa | 0 mm | - | 0 W/m² | - |
| 1777421905 | 25° C | 65% | 1018.3 hPa | 0 mm | - | 0 W/m² | - |
| 1777419499 | 26.67° C | 62% | 1018.2 hPa | 0 mm | - | 14 W/m² | - |
| 1777418894 | 27.22° C | 58% | 1018.2 hPa | 0 mm | - | 21 W/m² | - |
| 1777414070 | 27.78° C | 53% | 1018.4 hPa | 0 mm | - | 94 W/m² | - |
| 1777409850 | 29.44° C | 49% | 1018.4 hPa | 0 mm | - | 467 W/m² | - |
| 1777408647 | 30.56° C | 48% | 1019.3 hPa | 0 mm | - | 548 W/m² | - |
* Rain latest hour (hover to see other rain measurements)
** Current wind speed in m/s (hover to see current wind gust speed)